Terminal Aerodrome Forecast
Issued by NWS Atlanta, GA

Home | Current Version | Previous Version | Text Only | Print | Product List | Glossary On
Versions: 1 2 3 4 5 6 7 8 9 10 11 12 13 14 15 16 17 18 19 20 21 22 23 24 25 26 27 28 29 30 31 32 33 34 35 36
000
FTUS42 KFFC 280300 AAB
TAFATL
TAF AMD
KATL 280330Z 2804/2906 24006KT P6SM FEW050 SCT140
     FM281000 26010KT P6SM VCSH SCT040 BKN100
      TEMPO 2811/2814 5SM TSRA BKN030CB
     FM281500 29010G18KT P6SM VCSH BKN040
     FM281900 31012G20KT P6SM SCT040
     FM290100 32008KT P6SM SCT120=

USA.gov is the U.S. government's official web portal to all federal, state and local government web resources and services.